sensor_id;sensor_type;location;lat;lon;timestamp;P1;durP1;ratioP1;P2;durP2;ratioP2
8482;SDS011;4278;42.668;23.312;2023-05-07T00:01:36;13.83;;;9.03;;
8482;SDS011;4278;42.668;23.312;2023-05-07T00:04:03;13.63;;;8.70;;
8482;SDS011;4278;42.668;23.312;2023-05-07T00:06:30;15.43;;;8.67;;
8482;SDS011;4278;42.668;23.312;2023-05-07T00:08:58;16.90;;;8.90;;
8482;SDS011;4278;42.668;23.312;2023-05-07T00:11:26;14.47;;;8.17;;
8482;SDS011;4278;42.668;23.312;2023-05-07T00:13:53;12.17;;;8.43;;
8482;SDS011;4278;42.668;23.312;2023-05-07T00:16:21;13.70;;;8.00;;
8482;SDS011;4278;42.668;23.312;2023-05-07T00:18:48;12.40;;;8.40;;
8482;SDS011;4278;42.668;23.312;2023-05-07T00:21:15;11.93;;;8.07;;
8482;SDS011;4278;42.668;23.312;2023-05-07T00:26:27;14.13;;;8.13;;
8482;SDS011;4278;42.668;23.312;2023-05-07T00:28:54;15.13;;;7.83;;
8482;SDS011;4278;42.668;23.312;2023-05-07T00:31:22;12.20;;;8.27;;
8482;SDS011;4278;42.668;23.312;2023-05-07T00:33:49;10.53;;;7.70;;
8482;SDS011;4278;42.668;23.312;2023-05-07T00:36:16;12.37;;;8.03;;
8482;SDS011;4278;42.668;23.312;2023-05-07T00:38:42;14.03;;;7.93;;
8482;SDS011;4278;42.668;23.312;2023-05-07T00:41:09;15.53;;;8.83;;
8482;SDS011;4278;42.668;23.312;2023-05-07T00:43:36;10.20;;;7.63;;
8482;SDS011;4278;42.668;23.312;2023-05-07T00:46:03;12.53;;;8.10;;
8482;SDS011;4278;42.668;23.312;2023-05-07T00:48:31;11.43;;;8.47;;
8482;SDS011;4278;42.668;23.312;2023-05-07T00:50:58;13.53;;;8.87;;
8482;SDS011;4278;42.668;23.312;2023-05-07T00:53:25;15.50;;;8.37;;
8482;SDS011;4278;42.668;23.312;2023-05-07T00:55:52;10.33;;;7.57;;
8482;SDS011;4278;42.668;23.312;2023-05-07T00:58:19;12.33;;;8.20;;
8482;SDS011;4278;42.668;23.312;2023-05-07T01:00:47;12.60;;;8.50;;
8482;SDS011;4278;42.668;23.312;2023-05-07T01:03:14;13.23;;;7.93;;
8482;SDS011;4278;42.668;23.312;2023-05-07T01:05:42;13.93;;;8.27;;
8482;SDS011;4278;42.668;23.312;2023-05-07T01:08:12;15.23;;;9.00;;
8482;SDS011;4278;42.668;23.312;2023-05-07T01:10:40;12.93;;;8.30;;
8482;SDS011;4278;42.668;23.312;2023-05-07T01:13:08;16.60;;;9.33;;
8482;SDS011;4278;42.668;23.312;2023-05-07T01:15:36;14.53;;;9.53;;
8482;SDS011;4278;42.668;23.312;2023-05-07T01:18:03;12.43;;;8.77;;
8482;SDS011;4278;42.668;23.312;2023-05-07T01:20:30;15.90;;;8.80;;
8482;SDS011;4278;42.668;23.312;2023-05-07T01:22:59;14.67;;;8.97;;
8482;SDS011;4278;42.668;23.312;2023-05-07T01:25:27;13.10;;;9.03;;
8482;SDS011;4278;42.668;23.312;2023-05-07T01:27:54;14.97;;;8.93;;
8482;SDS011;4278;42.668;23.312;2023-05-07T01:30:20;12.10;;;8.93;;
8482;SDS011;4278;42.668;23.312;2023-05-07T01:32:50;11.53;;;7.60;;
8482;SDS011;4278;42.668;23.312;2023-05-07T01:35:22;16.10;;;9.00;;
8482;SDS011;4278;42.668;23.312;2023-05-07T01:37:52;10.70;;;7.20;;
8482;SDS011;4278;42.668;23.312;2023-05-07T01:40:21;11.07;;;6.10;;
8482;SDS011;4278;42.668;23.312;2023-05-07T01:42:49;8.67;;;6.10;;
8482;SDS011;4278;42.668;23.312;2023-05-07T01:45:17;9.43;;;6.17;;
8482;SDS011;4278;42.668;23.312;2023-05-07T01:47:43;10.17;;;5.50;;
8482;SDS011;4278;42.668;23.312;2023-05-07T01:50:10;9.77;;;6.43;;
8482;SDS011;4278;42.668;23.312;2023-05-07T01:52:38;8.57;;;5.90;;
8482;SDS011;4278;42.668;23.312;2023-05-07T01:55:05;9.03;;;5.60;;
8482;SDS011;4278;42.668;23.312;2023-05-07T01:57:34;10.77;;;6.47;;
8482;SDS011;4278;42.668;23.312;2023-05-07T02:00:01;9.37;;;6.13;;
8482;SDS011;4278;42.668;23.312;2023-05-07T02:02:31;8.03;;;5.63;;
8482;SDS011;4278;42.668;23.312;2023-05-07T02:04:58;8.13;;;5.77;;
8482;SDS011;4278;42.668;23.312;2023-05-07T02:07:25;12.17;;;6.50;;
8482;SDS011;4278;42.668;23.312;2023-05-07T02:09:52;9.47;;;5.47;;
8482;SDS011;4278;42.668;23.312;2023-05-07T02:12:20;10.87;;;6.03;;
8482;SDS011;4278;42.668;23.312;2023-05-07T02:14:48;11.33;;;5.70;;
8482;SDS011;4278;42.668;23.312;2023-05-07T02:17:15;7.87;;;5.53;;
8482;SDS011;4278;42.668;23.312;2023-05-07T02:19:42;6.87;;;5.63;;
8482;SDS011;4278;42.668;23.312;2023-05-07T02:22:09;8.93;;;6.00;;
8482;SDS011;4278;42.668;23.312;2023-05-07T02:24:36;14.30;;;6.87;;
8482;SDS011;4278;42.668;23.312;2023-05-07T02:27:03;8.03;;;6.00;;
8482;SDS011;4278;42.668;23.312;2023-05-07T02:29:30;11.40;;;7.23;;
8482;SDS011;4278;42.668;23.312;2023-05-07T02:31:58;10.23;;;6.10;;
8482;SDS011;4278;42.668;23.312;2023-05-07T02:34:25;9.87;;;6.77;;
8482;SDS011;4278;42.668;23.312;2023-05-07T02:36:53;10.77;;;6.50;;
8482;SDS011;4278;42.668;23.312;2023-05-07T02:39:20;10.50;;;6.93;;
8482;SDS011;4278;42.668;23.312;2023-05-07T02:41:47;11.00;;;7.67;;
8482;SDS011;4278;42.668;23.312;2023-05-07T02:44:14;11.87;;;7.53;;
8482;SDS011;4278;42.668;23.312;2023-05-07T02:46:40;11.77;;;7.73;;
8482;SDS011;4278;42.668;23.312;2023-05-07T02:49:09;9.93;;;7.07;;
8482;SDS011;4278;42.668;23.312;2023-05-07T02:51:35;11.10;;;7.47;;
8482;SDS011;4278;42.668;23.312;2023-05-07T02:54:02;10.93;;;7.20;;
8482;SDS011;4278;42.668;23.312;2023-05-07T02:56:29;11.30;;;7.10;;
8482;SDS011;4278;42.668;23.312;2023-05-07T02:58:56;10.60;;;6.83;;
8482;SDS011;4278;42.668;23.312;2023-05-07T03:01:23;13.97;;;7.83;;
8482;SDS011;4278;42.668;23.312;2023-05-07T03:03:50;12.40;;;7.77;;
8482;SDS011;4278;42.668;23.312;2023-05-07T03:06:18;13.37;;;7.43;;
8482;SDS011;4278;42.668;23.312;2023-05-07T03:08:45;14.70;;;8.37;;
8482;SDS011;4278;42.668;23.312;2023-05-07T03:11:11;10.13;;;7.60;;
8482;SDS011;4278;42.668;23.312;2023-05-07T03:13:38;11.23;;;7.47;;
8482;SDS011;4278;42.668;23.312;2023-05-07T03:16:05;8.97;;;6.97;;
8482;SDS011;4278;42.668;23.312;2023-05-07T03:18:32;11.57;;;7.80;;
8482;SDS011;4278;42.668;23.312;2023-05-07T03:20:59;14.37;;;8.43;;
8482;SDS011;4278;42.668;23.312;2023-05-07T03:23:27;12.40;;;8.00;;
8482;SDS011;4278;42.668;23.312;2023-05-07T03:25:54;14.07;;;7.60;;
8482;SDS011;4278;42.668;23.312;2023-05-07T03:28:22;12.60;;;7.77;;
8482;SDS011;4278;42.668;23.312;2023-05-07T03:30:49;14.60;;;7.93;;
8482;SDS011;4278;42.668;23.312;2023-05-07T03:33:16;10.23;;;6.47;;
8482;SDS011;4278;42.668;23.312;2023-05-07T03:35:42;10.80;;;8.13;;
8482;SDS011;4278;42.668;23.312;2023-05-07T03:38:09;12.80;;;7.50;;
8482;SDS011;4278;42.668;23.312;2023-05-07T03:40:37;12.13;;;7.83;;
8482;SDS011;4278;42.668;23.312;2023-05-07T03:43:04;12.77;;;7.43;;
8482;SDS011;4278;42.668;23.312;2023-05-07T03:45:31;9.70;;;7.63;;
8482;SDS011;4278;42.668;23.312;2023-05-07T03:47:58;14.73;;;8.67;;
8482;SDS011;4278;42.668;23.312;2023-05-07T03:50:24;12.97;;;7.97;;
8482;SDS011;4278;42.668;23.312;2023-05-07T03:52:51;11.87;;;8.50;;
8482;SDS011;4278;42.668;23.312;2023-05-07T03:55:18;12.37;;;8.03;;
8482;SDS011;4278;42.668;23.312;2023-05-07T03:57:46;11.60;;;7.53;;
8482;SDS011;4278;42.668;23.312;2023-05-07T04:00:13;11.57;;;7.27;;
8482;SDS011;4278;42.668;23.312;2023-05-07T04:02:40;13.20;;;8.13;;
8482;SDS011;4278;42.668;23.312;2023-05-07T04:05:07;13.23;;;8.23;;
8482;SDS011;4278;42.668;23.312;2023-05-07T04:07:34;11.93;;;8.20;;
8482;SDS011;4278;42.668;23.312;2023-05-07T04:10:01;11.23;;;7.70;;
8482;SDS011;4278;42.668;23.312;2023-05-07T04:12:28;11.50;;;7.93;;
8482;SDS011;4278;42.668;23.312;2023-05-07T04:14:56;12.23;;;8.40;;
8482;SDS011;4278;42.668;23.312;2023-05-07T04:17:23;12.87;;;7.77;;
8482;SDS011;4278;42.668;23.312;2023-05-07T04:19:50;13.97;;;8.27;;
8482;SDS011;4278;42.668;23.312;2023-05-07T04:22:17;12.10;;;7.63;;
8482;SDS011;4278;42.668;23.312;2023-05-07T04:24:43;12.60;;;9.10;;
8482;SDS011;4278;42.668;23.312;2023-05-07T04:27:10;16.27;;;8.60;;
8482;SDS011;4278;42.668;23.312;2023-05-07T04:29:37;13.47;;;9.63;;
8482;SDS011;4278;42.668;23.312;2023-05-07T04:32:08;13.07;;;8.63;;
8482;SDS011;4278;42.668;23.312;2023-05-07T04:34:35;12.80;;;8.27;;
8482;SDS011;4278;42.668;23.312;2023-05-07T04:37:02;12.63;;;7.73;;
8482;SDS011;4278;42.668;23.312;2023-05-07T04:39:28;15.30;;;8.30;;
8482;SDS011;4278;42.668;23.312;2023-05-07T04:41:55;11.00;;;8.43;;
8482;SDS011;4278;42.668;23.312;2023-05-07T04:44:22;11.73;;;8.07;;
8482;SDS011;4278;42.668;23.312;2023-05-07T04:46:50;10.50;;;7.20;;
8482;SDS011;4278;42.668;23.312;2023-05-07T04:49:18;18.73;;;8.10;;
8482;SDS011;4278;42.668;23.312;2023-05-07T04:51:44;14.53;;;8.67;;
8482;SDS011;4278;42.668;23.312;2023-05-07T04:54:11;12.47;;;7.50;;
8482;SDS011;4278;42.668;23.312;2023-05-07T04:56:38;10.67;;;7.30;;
8482;SDS011;4278;42.668;23.312;2023-05-07T04:59:05;10.93;;;8.43;;
8482;SDS011;4278;42.668;23.312;2023-05-07T05:01:31;13.60;;;8.80;;
8482;SDS011;4278;42.668;23.312;2023-05-07T05:03:58;13.07;;;7.50;;
8482;SDS011;4278;42.668;23.312;2023-05-07T05:06:27;11.00;;;6.83;;
8482;SDS011;4278;42.668;23.312;2023-05-07T05:08:54;12.23;;;7.87;;
8482;SDS011;4278;42.668;23.312;2023-05-07T05:11:21;13.07;;;8.13;;
8482;SDS011;4278;42.668;23.312;2023-05-07T05:13:48;12.03;;;7.63;;
8482;SDS011;4278;42.668;23.312;2023-05-07T05:16:15;13.03;;;8.57;;
8482;SDS011;4278;42.668;23.312;2023-05-07T05:18:42;11.40;;;7.93;;
8482;SDS011;4278;42.668;23.312;2023-05-07T05:21:09;12.97;;;8.13;;
8482;SDS011;4278;42.668;23.312;2023-05-07T05:23:37;10.80;;;7.10;;
8482;SDS011;4278;42.668;23.312;2023-05-07T05:26:04;15.80;;;8.20;;
8482;SDS011;4278;42.668;23.312;2023-05-07T05:28:30;10.93;;;7.47;;
8482;SDS011;4278;42.668;23.312;2023-05-07T05:30:57;13.20;;;7.87;;
8482;SDS011;4278;42.668;23.312;2023-05-07T05:33:24;12.33;;;8.53;;
8482;SDS011;4278;42.668;23.312;2023-05-07T05:35:51;10.43;;;7.80;;
8482;SDS011;4278;42.668;23.312;2023-05-07T05:38:17;10.97;;;7.30;;
8482;SDS011;4278;42.668;23.312;2023-05-07T05:40:47;12.97;;;8.47;;
8482;SDS011;4278;42.668;23.312;2023-05-07T05:43:14;11.03;;;7.50;;
8482;SDS011;4278;42.668;23.312;2023-05-07T05:45:58;9.93;;;7.40;;
8482;SDS011;4278;42.668;23.312;2023-05-07T05:48:25;13.03;;;8.30;;
8482;SDS011;4278;42.668;23.312;2023-05-07T05:50:52;12.37;;;7.43;;
8482;SDS011;4278;42.668;23.312;2023-05-07T05:53:18;14.00;;;8.00;;
8482;SDS011;4278;42.668;23.312;2023-05-07T05:55:47;10.53;;;7.33;;
8482;SDS011;4278;42.668;23.312;2023-05-07T05:58:13;10.73;;;7.47;;
8482;SDS011;4278;42.668;23.312;2023-05-07T06:00:41;12.80;;;8.23;;
8482;SDS011;4278;42.668;23.312;2023-05-07T06:03:08;11.33;;;6.93;;
8482;SDS011;4278;42.668;23.312;2023-05-07T06:05:35;10.33;;;7.27;;
8482;SDS011;4278;42.668;23.312;2023-05-07T06:08:02;15.30;;;7.63;;
8482;SDS011;4278;42.668;23.312;2023-05-07T06:10:29;10.67;;;7.83;;
8482;SDS011;4278;42.668;23.312;2023-05-07T06:12:58;10.87;;;7.77;;
8482;SDS011;4278;42.668;23.312;2023-05-07T06:15:24;14.77;;;6.70;;
8482;SDS011;4278;42.668;23.312;2023-05-07T06:17:51;12.63;;;7.00;;
8482;SDS011;4278;42.668;23.312;2023-05-07T06:20:18;9.20;;;6.67;;
8482;SDS011;4278;42.668;23.312;2023-05-07T06:22:44;9.37;;;6.93;;
8482;SDS011;4278;42.668;23.312;2023-05-07T06:25:11;9.83;;;6.73;;
8482;SDS011;4278;42.668;23.312;2023-05-07T06:27:38;9.77;;;7.07;;
8482;SDS011;4278;42.668;23.312;2023-05-07T06:30:07;9.47;;;7.60;;
8482;SDS011;4278;42.668;23.312;2023-05-07T06:32:35;10.77;;;7.37;;
8482;SDS011;4278;42.668;23.312;2023-05-07T06:35:03;8.70;;;7.43;;
8482;SDS011;4278;42.668;23.312;2023-05-07T06:37:30;8.70;;;6.30;;
8482;SDS011;4278;42.668;23.312;2023-05-07T06:39:56;8.90;;;7.40;;
8482;SDS011;4278;42.668;23.312;2023-05-07T06:42:23;10.33;;;7.63;;
8482;SDS011;4278;42.668;23.312;2023-05-07T06:44:50;13.97;;;7.63;;
8482;SDS011;4278;42.668;23.312;2023-05-07T06:47:18;8.60;;;6.20;;
8482;SDS011;4278;42.668;23.312;2023-05-07T06:49:45;14.30;;;6.53;;
8482;SDS011;4278;42.668;23.312;2023-05-07T06:52:12;11.63;;;7.40;;
8482;SDS011;4278;42.668;23.312;2023-05-07T06:54:38;12.93;;;8.03;;
8482;SDS011;4278;42.668;23.312;2023-05-07T06:57:05;11.33;;;8.00;;
8482;SDS011;4278;42.668;23.312;2023-05-07T06:59:32;9.17;;;6.87;;
8482;SDS011;4278;42.668;23.312;2023-05-07T07:01:59;12.85;;;7.78;;
8482;SDS011;4278;42.668;23.312;2023-05-07T07:04:27;9.30;;;7.07;;
8482;SDS011;4278;42.668;23.312;2023-05-07T07:06:53;8.90;;;6.45;;
8482;SDS011;4278;42.668;23.312;2023-05-07T07:09:21;9.15;;;7.05;;
8482;SDS011;4278;42.668;23.312;2023-05-07T07:11:48;10.38;;;7.43;;
8482;SDS011;4278;42.668;23.312;2023-05-07T07:14:15;14.88;;;7.18;;
8482;SDS011;4278;42.668;23.312;2023-05-07T07:16:41;11.88;;;7.15;;
8482;SDS011;4278;42.668;23.312;2023-05-07T07:19:08;8.63;;;6.35;;
8482;SDS011;4278;42.668;23.312;2023-05-07T07:21:36;8.88;;;6.43;;
8482;SDS011;4278;42.668;23.312;2023-05-07T07:24:03;8.27;;;6.07;;
8482;SDS011;4278;42.668;23.312;2023-05-07T07:26:31;10.52;;;6.47;;
8482;SDS011;4278;42.668;23.312;2023-05-07T07:28:58;8.00;;;6.35;;
8482;SDS011;4278;42.668;23.312;2023-05-07T07:31:25;11.77;;;5.97;;
8482;SDS011;4278;42.668;23.312;2023-05-07T07:33:51;8.93;;;6.60;;
8482;SDS011;4278;42.668;23.312;2023-05-07T07:36:18;7.18;;;6.13;;
8482;SDS011;4278;42.668;23.312;2023-05-07T07:38:46;8.13;;;5.78;;
8482;SDS011;4278;42.668;23.312;2023-05-07T07:41:13;9.40;;;6.47;;
8482;SDS011;4278;42.668;23.312;2023-05-07T07:43:40;11.55;;;6.22;;
8482;SDS011;4278;42.668;23.312;2023-05-07T07:46:06;7.95;;;5.75;;
8482;SDS011;4278;42.668;23.312;2023-05-07T07:48:33;6.72;;;5.20;;
8482;SDS011;4278;42.668;23.312;2023-05-07T07:51:00;10.75;;;6.88;;
8482;SDS011;4278;42.668;23.312;2023-05-07T07:53:27;8.50;;;6.30;;
8482;SDS011;4278;42.668;23.312;2023-05-07T07:55:55;9.82;;;6.60;;
8482;SDS011;4278;42.668;23.312;2023-05-07T07:58:21;8.68;;;6.40;;
8482;SDS011;4278;42.668;23.312;2023-05-07T08:00:49;9.82;;;6.15;;
8482;SDS011;4278;42.668;23.312;2023-05-07T08:03:16;11.95;;;6.47;;
8482;SDS011;4278;42.668;23.312;2023-05-07T08:05:44;8.15;;;6.28;;
8482;SDS011;4278;42.668;23.312;2023-05-07T08:08:11;7.15;;;6.43;;
8482;SDS011;4278;42.668;23.312;2023-05-07T08:10:38;7.70;;;5.90;;
8482;SDS011;4278;42.668;23.312;2023-05-07T08:13:06;8.45;;;6.55;;
8482;SDS011;4278;42.668;23.312;2023-05-07T08:15:33;7.47;;;6.18;;
8482;SDS011;4278;42.668;23.312;2023-05-07T08:18:00;8.27;;;6.15;;
8482;SDS011;4278;42.668;23.312;2023-05-07T08:20:28;9.77;;;6.55;;
8482;SDS011;4278;42.668;23.312;2023-05-07T08:22:55;10.60;;;6.63;;
8482;SDS011;4278;42.668;23.312;2023-05-07T08:25:21;8.38;;;6.35;;
8482;SDS011;4278;42.668;23.312;2023-05-07T08:27:48;8.75;;;6.22;;
8482;SDS011;4278;42.668;23.312;2023-05-07T08:30:16;7.90;;;6.43;;
8482;SDS011;4278;42.668;23.312;2023-05-07T08:32:43;7.45;;;6.20;;
8482;SDS011;4278;42.668;23.312;2023-05-07T08:35:10;11.00;;;6.78;;
8482;SDS011;4278;42.668;23.312;2023-05-07T08:37:39;8.15;;;7.00;;
8482;SDS011;4278;42.668;23.312;2023-05-07T08:40:14;11.43;;;6.38;;
8482;SDS011;4278;42.668;23.312;2023-05-07T08:42:41;8.88;;;5.65;;
8482;SDS011;4278;42.668;23.312;2023-05-07T08:45:09;7.50;;;5.65;;
8482;SDS011;4278;42.668;23.312;2023-05-07T08:47:40;11.15;;;5.90;;
8482;SDS011;4278;42.668;23.312;2023-05-07T08:50:10;10.05;;;6.50;;
8482;SDS011;4278;42.668;23.312;2023-05-07T08:52:37;10.23;;;6.60;;
8482;SDS011;4278;42.668;23.312;2023-05-07T08:55:05;9.90;;;6.45;;
8482;SDS011;4278;42.668;23.312;2023-05-07T08:57:33;8.27;;;6.03;;
8482;SDS011;4278;42.668;23.312;2023-05-07T09:00:00;11.80;;;6.30;;
8482;SDS011;4278;42.668;23.312;2023-05-07T09:02:28;8.07;;;5.43;;
8482;SDS011;4278;42.668;23.312;2023-05-07T09:04:56;8.70;;;5.30;;
8482;SDS011;4278;42.668;23.312;2023-05-07T09:07:23;8.60;;;5.70;;
8482;SDS011;4278;42.668;23.312;2023-05-07T09:09:51;8.40;;;5.80;;
8482;SDS011;4278;42.668;23.312;2023-05-07T09:12:18;11.75;;;5.60;;
8482;SDS011;4278;42.668;23.312;2023-05-07T09:14:45;5.82;;;5.15;;
8482;SDS011;4278;42.668;23.312;2023-05-07T09:17:12;6.32;;;4.70;;
8482;SDS011;4278;42.668;23.312;2023-05-07T09:19:39;6.25;;;5.03;;
8482;SDS011;4278;42.668;23.312;2023-05-07T09:22:07;5.45;;;4.40;;
8482;SDS011;4278;42.668;23.312;2023-05-07T09:24:34;7.05;;;4.95;;
8482;SDS011;4278;42.668;23.312;2023-05-07T09:27:02;5.50;;;4.32;;
8482;SDS011;4278;42.668;23.312;2023-05-07T09:29:30;6.28;;;4.75;;
8482;SDS011;4278;42.668;23.312;2023-05-07T09:32:00;6.03;;;4.32;;
8482;SDS011;4278;42.668;23.312;2023-05-07T09:34:27;6.68;;;4.43;;
8482;SDS011;4278;42.668;23.312;2023-05-07T09:36:54;5.32;;;4.43;;
8482;SDS011;4278;42.668;23.312;2023-05-07T09:39:23;6.78;;;3.95;;
8482;SDS011;4278;42.668;23.312;2023-05-07T09:41:49;4.55;;;3.85;;
8482;SDS011;4278;42.668;23.312;2023-05-07T09:44:19;7.28;;;3.55;;
8482;SDS011;4278;42.668;23.312;2023-05-07T09:46:46;5.88;;;3.50;;
8482;SDS011;4278;42.668;23.312;2023-05-07T09:49:20;6.45;;;4.07;;
8482;SDS011;4278;42.668;23.312;2023-05-07T09:51:49;8.32;;;4.35;;
8482;SDS011;4278;42.668;23.312;2023-05-07T09:54:17;5.40;;;4.70;;
8482;SDS011;4278;42.668;23.312;2023-05-07T09:56:45;6.18;;;4.35;;
8482;SDS011;4278;42.668;23.312;2023-05-07T09:59:15;5.32;;;4.03;;
8482;SDS011;4278;42.668;23.312;2023-05-07T10:01:43;4.40;;;3.80;;
8482;SDS011;4278;42.668;23.312;2023-05-07T10:04:10;5.40;;;4.18;;
8482;SDS011;4278;42.668;23.312;2023-05-07T10:06:38;5.28;;;3.58;;
8482;SDS011;4278;42.668;23.312;2023-05-07T10:09:06;4.80;;;3.65;;
8482;SDS011;4278;42.668;23.312;2023-05-07T10:11:33;4.95;;;3.20;;
8482;SDS011;4278;42.668;23.312;2023-05-07T10:14:02;4.38;;;3.08;;
8482;SDS011;4278;42.668;23.312;2023-05-07T10:16:31;4.38;;;3.10;;
8482;SDS011;4278;42.668;23.312;2023-05-07T10:19:01;5.35;;;3.30;;
8482;SDS011;4278;42.668;23.312;2023-05-07T10:21:29;9.98;;;3.60;;
8482;SDS011;4278;42.668;23.312;2023-05-07T10:23:58;6.45;;;3.38;;
8482;SDS011;4278;42.668;23.312;2023-05-07T10:26:27;7.53;;;3.53;;
8482;SDS011;4278;42.668;23.312;2023-05-07T10:28:57;4.22;;;3.58;;
8482;SDS011;4278;42.668;23.312;2023-05-07T10:31:48;6.35;;;3.55;;
8482;SDS011;4278;42.668;23.312;2023-05-07T10:34:23;4.82;;;3.75;;
8482;SDS011;4278;42.668;23.312;2023-05-07T10:36:52;4.28;;;3.50;;
8482;SDS011;4278;42.668;23.312;2023-05-07T10:39:21;5.32;;;3.58;;
8482;SDS011;4278;42.668;23.312;2023-05-07T10:41:49;4.68;;;3.88;;
8482;SDS011;4278;42.668;23.312;2023-05-07T10:44:24;5.70;;;4.05;;
8482;SDS011;4278;42.668;23.312;2023-05-07T10:47:06;5.20;;;3.55;;
8482;SDS011;4278;42.668;23.312;2023-05-07T10:49:34;3.97;;;3.58;;
8482;SDS011;4278;42.668;23.312;2023-05-07T10:52:11;3.85;;;3.45;;
8482;SDS011;4278;42.668;23.312;2023-05-07T10:54:39;5.15;;;3.45;;
8482;SDS011;4278;42.668;23.312;2023-05-07T11:00:13;3.88;;;3.50;;
8482;SDS011;4278;42.668;23.312;2023-05-07T11:03:09;3.78;;;3.40;;
8482;SDS011;4278;42.668;23.312;2023-05-07T11:05:37;5.40;;;3.92;;
8482;SDS011;4278;42.668;23.312;2023-05-07T11:08:04;7.18;;;3.53;;
8482;SDS011;4278;42.668;23.312;2023-05-07T11:10:47;3.63;;;3.33;;
8482;SDS011;4278;42.668;23.312;2023-05-07T11:13:16;5.72;;;4.15;;
8482;SDS011;4278;42.668;23.312;2023-05-07T11:15:43;4.53;;;3.47;;
8482;SDS011;4278;42.668;23.312;2023-05-07T11:18:13;4.15;;;3.72;;
8482;SDS011;4278;42.668;23.312;2023-05-07T11:20:48;5.07;;;3.55;;
8482;SDS011;4278;42.668;23.312;2023-05-07T11:26:21;4.57;;;3.67;;
8482;SDS011;4278;42.668;23.312;2023-05-07T11:28:48;4.38;;;3.70;;
8482;SDS011;4278;42.668;23.312;2023-05-07T11:31:17;4.53;;;3.35;;
8482;SDS011;4278;42.668;23.312;2023-05-07T11:33:48;4.18;;;3.30;;
8482;SDS011;4278;42.668;23.312;2023-05-07T11:36:15;4.35;;;3.50;;
8482;SDS011;4278;42.668;23.312;2023-05-07T11:38:42;5.00;;;3.50;;
8482;SDS011;4278;42.668;23.312;2023-05-07T11:41:09;4.00;;;3.08;;
8482;SDS011;4278;42.668;23.312;2023-05-07T11:43:36;6.43;;;3.03;;
8482;SDS011;4278;42.668;23.312;2023-05-07T11:46:05;3.55;;;3.25;;
8482;SDS011;4278;42.668;23.312;2023-05-07T11:48:33;6.03;;;3.60;;
8482;SDS011;4278;42.668;23.312;2023-05-07T11:51:02;4.80;;;3.67;;
8482;SDS011;4278;42.668;23.312;2023-05-07T11:53:35;4.90;;;3.33;;
8482;SDS011;4278;42.668;23.312;2023-05-07T11:56:07;3.60;;;3.30;;
8482;SDS011;4278;42.668;23.312;2023-05-07T11:58:34;5.75;;;3.47;;
8482;SDS011;4278;42.668;23.312;2023-05-07T12:01:01;5.28;;;3.35;;
8482;SDS011;4278;42.668;23.312;2023-05-07T12:03:28;3.72;;;3.25;;
8482;SDS011;4278;42.668;23.312;2023-05-07T12:05:54;3.47;;;3.17;;
8482;SDS011;4278;42.668;23.312;2023-05-07T12:08:23;5.65;;;3.47;;
8482;SDS011;4278;42.668;23.312;2023-05-07T12:10:49;5.60;;;3.47;;
8482;SDS011;4278;42.668;23.312;2023-05-07T12:13:16;4.93;;;3.28;;
8482;SDS011;4278;42.668;23.312;2023-05-07T12:15:44;4.60;;;3.30;;
8482;SDS011;4278;42.668;23.312;2023-05-07T12:18:11;5.90;;;3.63;;
8482;SDS011;4278;42.668;23.312;2023-05-07T12:20:39;4.00;;;3.50;;
8482;SDS011;4278;42.668;23.312;2023-05-07T12:23:06;4.10;;;3.40;;
8482;SDS011;4278;42.668;23.312;2023-05-07T12:25:35;6.07;;;3.20;;
8482;SDS011;4278;42.668;23.312;2023-05-07T12:28:04;4.40;;;3.28;;
8482;SDS011;4278;42.668;23.312;2023-05-07T12:30:31;4.72;;;2.97;;
8482;SDS011;4278;42.668;23.312;2023-05-07T12:32:58;4.50;;;3.30;;
8482;SDS011;4278;42.668;23.312;2023-05-07T12:35:28;4.50;;;2.83;;
8482;SDS011;4278;42.668;23.312;2023-05-07T12:37:55;4.60;;;3.20;;
8482;SDS011;4278;42.668;23.312;2023-05-07T12:40:24;6.22;;;3.40;;
8482;SDS011;4278;42.668;23.312;2023-05-07T12:42:53;6.30;;;2.90;;
8482;SDS011;4278;42.668;23.312;2023-05-07T12:45:20;5.18;;;3.10;;
8482;SDS011;4278;42.668;23.312;2023-05-07T12:47:47;3.42;;;2.90;;
8482;SDS011;4278;42.668;23.312;2023-05-07T12:50:15;2.88;;;2.58;;
8482;SDS011;4278;42.668;23.312;2023-05-07T12:52:43;4.20;;;2.75;;
8482;SDS011;4278;42.668;23.312;2023-05-07T12:55:12;3.20;;;2.80;;
8482;SDS011;4278;42.668;23.312;2023-05-07T12:57:40;4.55;;;3.30;;
8482;SDS011;4278;42.668;23.312;2023-05-07T13:00:10;3.25;;;2.80;;
8482;SDS011;4278;42.668;23.312;2023-05-07T13:02:38;6.05;;;2.72;;
8482;SDS011;4278;42.668;23.312;2023-05-07T13:05:06;2.80;;;2.60;;
8482;SDS011;4278;42.668;23.312;2023-05-07T13:07:33;3.45;;;2.45;;
8482;SDS011;4278;42.668;23.312;2023-05-07T13:10:02;3.35;;;3.08;;
8482;SDS011;4278;42.668;23.312;2023-05-07T13:12:29;3.20;;;2.80;;
8482;SDS011;4278;42.668;23.312;2023-05-07T13:14:56;6.68;;;3.15;;
8482;SDS011;4278;42.668;23.312;2023-05-07T13:17:24;4.97;;;2.97;;
8482;SDS011;4278;42.668;23.312;2023-05-07T13:19:51;3.10;;;2.80;;
8482;SDS011;4278;42.668;23.312;2023-05-07T13:22:17;5.57;;;3.20;;
8482;SDS011;4278;42.668;23.312;2023-05-07T13:24:44;3.58;;;2.72;;
8482;SDS011;4278;42.668;23.312;2023-05-07T13:27:11;7.13;;;2.90;;
8482;SDS011;4278;42.668;23.312;2023-05-07T13:29:37;2.90;;;2.55;;
8482;SDS011;4278;42.668;23.312;2023-05-07T13:32:04;2.90;;;2.67;;
8482;SDS011;4278;42.668;23.312;2023-05-07T13:34:32;4.03;;;3.03;;
8482;SDS011;4278;42.668;23.312;2023-05-07T13:36:59;4.60;;;3.05;;
8482;SDS011;4278;42.668;23.312;2023-05-07T13:39:26;4.35;;;3.30;;
8482;SDS011;4278;42.668;23.312;2023-05-07T13:41:52;4.82;;;3.10;;
8482;SDS011;4278;42.668;23.312;2023-05-07T13:44:19;5.78;;;3.58;;
8482;SDS011;4278;42.668;23.312;2023-05-07T13:46:46;3.95;;;2.83;;
8482;SDS011;4278;42.668;23.312;2023-05-07T13:49:12;3.67;;;3.15;;
8482;SDS011;4278;42.668;23.312;2023-05-07T13:51:41;4.78;;;2.72;;
8482;SDS011;4278;42.668;23.312;2023-05-07T13:54:08;4.28;;;3.13;;
8482;SDS011;4278;42.668;23.312;2023-05-07T13:56:34;4.40;;;3.03;;
8482;SDS011;4278;42.668;23.312;2023-05-07T13:59:01;3.70;;;3.15;;
8482;SDS011;4278;42.668;23.312;2023-05-07T14:01:28;3.40;;;3.00;;
8482;SDS011;4278;42.668;23.312;2023-05-07T14:03:55;3.80;;;3.13;;
8482;SDS011;4278;42.668;23.312;2023-05-07T14:06:22;3.63;;;2.78;;
8482;SDS011;4278;42.668;23.312;2023-05-07T14:08:51;3.25;;;2.95;;
8482;SDS011;4278;42.668;23.312;2023-05-07T14:11:17;6.47;;;3.55;;
8482;SDS011;4278;42.668;23.312;2023-05-07T14:13:44;3.97;;;3.25;;
8482;SDS011;4278;42.668;23.312;2023-05-07T14:16:11;5.22;;;3.20;;
8482;SDS011;4278;42.668;23.312;2023-05-07T14:18:38;4.20;;;3.30;;
8482;SDS011;4278;42.668;23.312;2023-05-07T14:21:04;3.55;;;2.97;;
8482;SDS011;4278;42.668;23.312;2023-05-07T14:23:32;4.32;;;3.00;;
8482;SDS011;4278;42.668;23.312;2023-05-07T14:26:01;3.40;;;3.10;;
8482;SDS011;4278;42.668;23.312;2023-05-07T14:28:27;6.28;;;3.15;;
8482;SDS011;4278;42.668;23.312;2023-05-07T14:30:54;3.22;;;2.70;;
8482;SDS011;4278;42.668;23.312;2023-05-07T14:33:21;3.92;;;2.70;;
8482;SDS011;4278;42.668;23.312;2023-05-07T14:35:48;3.45;;;2.88;;
8482;SDS011;4278;42.668;23.312;2023-05-07T14:38:15;3.28;;;2.97;;
8482;SDS011;4278;42.668;23.312;2023-05-07T14:40:42;4.40;;;3.88;;
8482;SDS011;4278;42.668;23.312;2023-05-07T14:43:10;4.30;;;3.13;;
8482;SDS011;4278;42.668;23.312;2023-05-07T14:45:36;4.60;;;3.63;;
8482;SDS011;4278;42.668;23.312;2023-05-07T14:48:03;4.50;;;3.45;;
8482;SDS011;4278;42.668;23.312;2023-05-07T14:50:30;3.78;;;3.40;;
8482;SDS011;4278;42.668;23.312;2023-05-07T14:52:57;3.53;;;3.05;;
8482;SDS011;4278;42.668;23.312;2023-05-07T14:55:24;3.25;;;2.92;;
8482;SDS011;4278;42.668;23.312;2023-05-07T14:57:51;3.25;;;3.00;;
8482;SDS011;4278;42.668;23.312;2023-05-07T15:00:19;3.45;;;3.10;;
8482;SDS011;4278;42.668;23.312;2023-05-07T15:02:46;4.38;;;3.35;;
8482;SDS011;4278;42.668;23.312;2023-05-07T15:05:13;3.40;;;3.10;;
8482;SDS011;4278;42.668;23.312;2023-05-07T15:07:40;4.40;;;2.97;;